createdAt,value
2022-10-19T00:00:17.437Z,96.01
2022-10-19T00:01:17.413Z,96.62
2022-10-19T00:02:17.541Z,97.25
2022-10-19T00:03:20.778Z,97.45
2022-10-19T00:04:17.400Z,96.62
2022-10-19T00:05:17.375Z,96.11
2022-10-19T00:06:17.390Z,95.90
2022-10-19T00:07:17.351Z,96.21
2022-10-19T00:08:17.353Z,96.11
2022-10-19T00:09:17.388Z,96.11
2022-10-19T00:10:17.329Z,96.36
2022-10-19T00:11:17.308Z,96.67
2022-10-19T00:12:17.312Z,97.19
2022-10-19T00:13:17.284Z,97.08
2022-10-19T00:14:17.289Z,97.04
2022-10-19T00:15:17.292Z,96.31
2022-10-19T00:16:17.307Z,96.36
2022-10-19T00:17:17.246Z,95.95
2022-10-19T00:18:17.243Z,96.47
2022-10-19T00:19:17.221Z,96.26
2022-10-19T00:20:17.230Z,96.77
2022-10-19T00:21:17.242Z,97.19
2022-10-19T00:22:17.218Z,97.19
2022-10-19T00:23:17.175Z,96.77
2022-10-19T00:24:17.200Z,96.67
2022-10-19T00:25:17.156Z,95.95
2022-10-19T00:26:17.158Z,96.47
2022-10-19T00:27:17.163Z,96.77
2022-10-19T00:28:17.149Z,96.98
2022-10-19T00:29:17.111Z,96.67
2022-10-19T00:30:17.120Z,96.15
2022-10-19T00:31:17.155Z,96.26
2022-10-19T00:32:17.101Z,96.51
2022-10-19T00:33:17.103Z,96.36
2022-10-19T00:34:17.077Z,96.36
2022-10-19T00:35:17.051Z,96.05
2022-10-19T00:36:17.052Z,96.51
2022-10-19T00:37:17.062Z,97.75
2022-10-19T00:38:17.040Z,97.75
2022-10-19T00:39:19.201Z,98.16
2022-10-19T00:40:17.009Z,97.64
2022-10-19T00:41:16.982Z,98.22
2022-10-19T00:42:17.008Z,97.19
2022-10-19T00:43:16.996Z,96.98
2022-10-19T00:44:16.976Z,97.02
2022-10-19T00:45:16.983Z,96.67
2022-10-19T00:46:16.954Z,97.08
2022-10-19T00:47:16.923Z,96.98
2022-10-19T00:48:16.936Z,96.56
2022-10-19T00:49:16.903Z,95.84
2022-10-19T00:50:16.907Z,95.78
2022-10-19T00:51:16.944Z,97.19
2022-10-19T00:52:16.889Z,96.47
2022-10-19T00:53:16.862Z,95.89
2022-10-19T00:54:16.865Z,95.78
2022-10-19T00:55:16.856Z,96.15
2022-10-19T00:56:16.844Z,96.36
2022-10-19T00:57:16.844Z,96.15
2022-10-19T00:58:16.821Z,95.32
2022-10-19T00:59:16.799Z,95.37
2022-10-19T01:00:16.808Z,95.27
2022-10-19T01:01:16.824Z,95.37
2022-10-19T01:02:16.783Z,95.68
2022-10-19T01:03:16.794Z,95.89
2022-10-19T01:04:16.760Z,96.09
2022-10-19T01:05:16.733Z,95.89
2022-10-19T01:06:16.750Z,96.24
2022-10-19T01:07:16.719Z,96.45
2022-10-19T01:08:16.743Z,96.66
2022-10-19T01:09:16.731Z,96.76
2022-10-19T01:10:16.695Z,96.76
2022-10-19T01:11:16.685Z,96.97
2022-10-19T01:12:16.671Z,96.97
2022-10-19T01:13:16.643Z,97.28
2022-10-19T01:14:16.648Z,97.17
2022-10-19T01:15:16.661Z,96.76
2022-10-19T01:16:16.633Z,95.42
2022-10-19T01:17:16.630Z,95.83
2022-10-19T01:18:16.610Z,95.83
2022-10-19T01:19:16.586Z,95.57
2022-10-19T01:20:16.586Z,96.61
2022-10-19T01:21:16.587Z,96.41
2022-10-19T01:22:16.564Z,95.78
2022-10-19T01:23:16.552Z,95.48
2022-10-19T01:24:16.553Z,95.68
2022-10-19T01:25:16.517Z,94.54
2022-10-19T01:26:16.528Z,94.44
2022-10-19T01:27:16.522Z,95.06
2022-10-19T01:28:16.509Z,94.23
2022-10-19T01:29:16.501Z,95.06
2022-10-19T01:30:16.476Z,94.54
2022-10-19T01:31:16.509Z,94.23
2022-10-19T01:32:16.450Z,94.90
2022-10-19T01:33:16.479Z,95.21
2022-10-19T01:34:16.426Z,95.42
2022-10-19T01:35:16.427Z,95.00
2022-10-19T01:36:16.434Z,95.31
2022-10-19T01:37:16.405Z,95.31
2022-10-19T01:38:16.383Z,95.62
2022-10-19T01:39:16.411Z,94.90
2022-10-19T01:40:16.366Z,95.52
2022-10-19T01:41:16.376Z,95.21
2022-10-19T01:42:16.343Z,95.31
2022-10-19T01:43:16.342Z,95.21
2022-10-19T01:44:16.314Z,95.87
2022-10-19T01:45:16.370Z,96.29
2022-10-19T01:46:16.298Z,96.80
2022-10-19T01:47:16.319Z,96.29
2022-10-19T01:48:16.275Z,96.29
2022-10-19T01:49:16.281Z,96.80
2022-10-19T01:50:16.277Z,96.70
2022-10-19T01:51:16.300Z,96.70
2022-10-19T01:52:16.245Z,97.36
2022-10-19T01:53:16.245Z,97.78
2022-10-19T01:54:16.216Z,98.30
2022-10-19T01:55:16.221Z,98.40
2022-10-19T01:56:16.205Z,98.50
2022-10-19T01:57:16.261Z,98.25
2022-10-19T01:58:16.170Z,98.35
2022-10-19T01:59:16.180Z,98.46
2022-10-19T02:00:16.150Z,98.35
2022-10-19T02:01:16.161Z,98.35
2022-10-19T02:02:16.135Z,99.65
2022-10-19T02:03:16.171Z,99.86
2022-10-19T02:04:16.114Z,98.62
2022-10-19T02:05:16.115Z,98.41
2022-10-19T02:06:16.091Z,98.10
2022-10-19T02:07:16.093Z,98.10
2022-10-19T02:08:16.068Z,98.21
2022-10-19T02:09:16.113Z,97.79
2022-10-19T02:10:16.086Z,97.69
2022-10-19T02:11:16.052Z,97.89
2022-10-19T02:12:16.027Z,98.57
2022-10-19T02:13:16.041Z,98.57
2022-10-19T02:14:15.999Z,98.88
2022-10-19T02:15:19.453Z,99.71
2022-10-19T02:16:15.983Z,99.30
2022-10-19T02:17:16.000Z,98.99
2022-10-19T02:18:15.971Z,97.44
2022-10-19T02:19:15.977Z,97.02
2022-10-19T02:20:15.956Z,96.30
2022-10-19T02:21:15.974Z,96.72
2022-10-19T02:22:15.913Z,97.44
2022-10-19T02:23:15.927Z,97.44
2022-10-19T02:24:15.896Z,96.51
2022-10-19T02:25:15.901Z,96.98
2022-10-19T02:26:15.871Z,96.82
2022-10-19T02:27:15.910Z,96.61
2022-10-19T02:28:15.970Z,96.72
2022-10-19T02:29:15.862Z,96.41
2022-10-19T02:30:15.848Z,96.51
2022-10-19T02:31:15.842Z,96.72
2022-10-19T02:32:15.816Z,96.72
2022-10-19T02:33:15.842Z,96.72
2022-10-19T02:34:15.799Z,96.61
2022-10-19T02:35:15.793Z,96.51
2022-10-19T02:36:15.775Z,96.30
2022-10-19T02:37:15.841Z,96.09
2022-10-19T02:38:15.765Z,96.24
2022-10-19T02:39:15.802Z,96.34
2022-10-19T02:40:15.739Z,96.86
2022-10-19T02:41:15.734Z,97.28
2022-10-19T02:42:15.707Z,96.86
2022-10-19T02:43:15.719Z,96.66
2022-10-19T02:44:15.690Z,96.76
2022-10-19T02:45:15.718Z,97.02
2022-10-19T02:46:15.669Z,97.02
2022-10-19T02:47:15.670Z,96.82
2022-10-19T02:48:15.658Z,97.23
2022-10-19T02:49:15.658Z,97.44
2022-10-19T02:50:15.631Z,97.44
2022-10-19T02:51:15.668Z,96.56
2022-10-19T02:52:15.596Z,97.19
2022-10-19T02:53:15.603Z,97.08
2022-10-19T02:54:15.588Z,97.08
2022-10-19T02:55:15.582Z,97.39
2022-10-19T02:56:15.568Z,97.29
2022-10-19T02:57:15.611Z,97.13
2022-10-19T02:58:15.543Z,97.02
2022-10-19T02:59:15.541Z,97.44
2022-10-19T03:00:15.518Z,97.96
2022-10-19T03:01:15.590Z,98.57
2022-10-19T03:02:15.497Z,98.16
2022-10-19T03:03:15.539Z,97.64
2022-10-19T03:04:15.484Z,97.44
2022-10-19T03:05:15.487Z,97.33
2022-10-19T03:06:15.470Z,97.44
2022-10-19T03:07:15.454Z,97.33
2022-10-19T03:08:15.433Z,97.75
2022-10-19T03:09:15.474Z,98.47
2022-10-19T03:10:15.414Z,98.57
2022-10-19T03:11:15.416Z,98.47
2022-10-19T03:12:15.395Z,98.22
2022-10-19T03:13:15.405Z,97.02
2022-10-19T03:14:15.372Z,97.08
2022-10-19T03:15:15.403Z,97.19
2022-10-19T03:16:15.367Z,96.82
2022-10-19T03:17:15.347Z,96.72
2022-10-19T03:18:15.334Z,97.33
2022-10-19T03:19:15.330Z,97.44
2022-10-19T03:20:15.299Z,97.44
2022-10-19T03:21:15.420Z,97.13
2022-10-19T03:22:15.285Z,97.33
2022-10-19T03:23:15.282Z,97.33
2022-10-19T03:24:15.263Z,97.44
2022-10-19T03:25:15.270Z,97.54
2022-10-19T03:26:15.249Z,97.02
2022-10-19T03:27:15.280Z,96.41
2022-10-19T03:28:15.221Z,96.51
2022-10-19T03:29:15.226Z,96.82
2022-10-19T03:30:15.202Z,96.92
2022-10-19T03:31:15.197Z,96.82
2022-10-19T03:32:15.185Z,96.82
2022-10-19T03:33:15.309Z,96.51
2022-10-19T03:34:15.165Z,96.61
2022-10-19T03:35:15.163Z,96.76
2022-10-19T03:36:15.153Z,96.55
2022-10-19T03:37:15.139Z,96.76
2022-10-19T03:38:15.132Z,96.86
2022-10-19T03:39:15.149Z,97.07
2022-10-19T03:40:15.096Z,97.28
2022-10-19T03:41:15.098Z,97.38
2022-10-19T03:42:15.094Z,97.79
2022-10-19T03:43:15.082Z,97.79
2022-10-19T03:44:15.064Z,97.28
2022-10-19T03:45:15.113Z,97.89
2022-10-19T03:46:15.047Z,98.31
2022-10-19T03:47:15.031Z,98.52
2022-10-19T03:48:15.019Z,97.49
2022-10-19T03:49:15.013Z,96.97
2022-10-19T03:50:14.987Z,96.66
2022-10-19T03:51:15.042Z,96.66
2022-10-19T03:52:14.970Z,96.55
2022-10-19T03:53:14.973Z,96.59
2022-10-19T03:54:14.947Z,97.11
2022-10-19T03:55:14.948Z,98.15
2022-10-19T03:56:14.925Z,98.05
2022-10-19T03:57:14.957Z,97.11
2022-10-19T03:58:14.902Z,96.70
2022-10-19T03:59:14.908Z,96.39
2022-10-19T04:00:14.894Z,96.49
2022-10-19T04:01:14.931Z,96.08
2022-10-19T04:02:14.865Z,96.19
2022-10-19T04:03:14.898Z,95.67
2022-10-19T04:04:14.839Z,96.29
2022-10-19T04:05:14.840Z,96.91
2022-10-19T04:06:17.033Z,98.05
2022-10-19T04:07:14.819Z,98.56
2022-10-19T04:08:14.802Z,99.08
2022-10-19T04:09:14.841Z,98.46
2022-10-19T04:10:14.771Z,97.32
2022-10-19T04:11:14.792Z,96.19
2022-10-19T04:12:14.763Z,95.04
2022-10-19T04:13:14.760Z,95.15
2022-10-19T04:14:22.657Z,95.56
2022-10-19T04:15:14.784Z,95.04
2022-10-19T04:16:14.725Z,95.98
2022-10-19T04:17:14.709Z,95.71
2022-10-19T04:18:14.692Z,95.71
2022-10-19T04:19:14.698Z,96.23
2022-10-19T04:20:14.669Z,96.33
2022-10-19T04:21:14.722Z,96.54
2022-10-19T04:22:14.657Z,96.95
2022-10-19T04:23:14.660Z,96.54
2022-10-19T04:24:14.637Z,96.02
2022-10-19T04:25:14.625Z,95.71
2022-10-19T04:26:14.606Z,95.92
2022-10-19T04:27:14.727Z,96.23
2022-10-19T04:28:14.581Z,96.58
2022-10-19T04:29:14.679Z,97.31
2022-10-19T04:30:14.572Z,97.00
2022-10-19T04:31:14.567Z,96.94
2022-10-19T04:32:14.543Z,97.31
2022-10-19T04:33:14.711Z,97.10
2022-10-19T04:34:14.533Z,96.73
2022-10-19T04:35:14.530Z,96.94
2022-10-19T04:36:14.505Z,96.58
2022-10-19T04:37:14.510Z,96.79
2022-10-19T04:38:14.534Z,96.58
2022-10-19T04:39:14.524Z,96.69
2022-10-19T04:40:15.088Z,96.17
2022-10-19T04:41:14.468Z,96.11
2022-10-19T04:42:14.452Z,96.42
2022-10-19T04:43:14.448Z,96.79
2022-10-19T04:44:14.472Z,97.20
2022-10-19T04:45:14.496Z,97.20
2022-10-19T04:46:14.392Z,96.79
2022-10-19T04:47:14.395Z,96.89
2022-10-19T04:48:15.216Z,96.79
2022-10-19T04:49:16.516Z,96.58
2022-10-19T04:50:14.358Z,96.58
2022-10-19T04:51:14.393Z,95.96
2022-10-19T04:52:14.340Z,95.75
2022-10-19T04:53:14.420Z,95.75
2022-10-19T04:54:14.319Z,96.27
2022-10-19T04:55:14.317Z,96.17
2022-10-19T04:56:14.294Z,96.17
2022-10-19T04:57:14.315Z,95.96
2022-10-19T04:58:14.270Z,95.75
2022-10-19T04:59:14.285Z,96.17
2022-10-19T05:00:14.249Z,96.27
2022-10-19T05:01:14.320Z,96.27
2022-10-19T05:02:14.242Z,95.86
2022-10-19T05:03:14.277Z,96.01
2022-10-19T05:04:14.207Z,96.01
2022-10-19T05:05:14.216Z,96.11
2022-10-19T05:06:14.183Z,96.52
2022-10-19T05:07:14.207Z,96.83
2022-10-19T05:08:14.158Z,96.73
2022-10-19T05:09:14.200Z,96.58
2022-10-19T05:10:14.136Z,96.37
2022-10-19T05:11:14.238Z,96.21
2022-10-19T05:12:14.120Z,96.42
2022-10-19T05:13:14.117Z,98.08
2022-10-19T05:14:14.159Z,97.77
2022-10-19T05:15:14.137Z,97.04
2022-10-19T05:16:14.074Z,97.29
2022-10-19T05:17:14.079Z,97.09
2022-10-19T05:18:14.051Z,96.88
2022-10-19T05:19:14.065Z,96.88
2022-10-19T05:20:14.093Z,96.98
2022-10-19T05:21:14.033Z,97.29
2022-10-19T05:22:14.019Z,97.39
2022-10-19T05:23:14.021Z,96.98
2022-10-19T05:24:13.991Z,96.98
2022-10-19T05:25:14.000Z,96.98
2022-10-19T05:26:13.995Z,97.60
2022-10-19T05:27:13.977Z,97.44
2022-10-19T05:28:13.976Z,97.65
2022-10-19T05:29:13.955Z,97.75
2022-10-19T05:30:13.932Z,97.91
2022-10-19T05:31:13.958Z,97.91
2022-10-19T05:32:13.905Z,97.50
2022-10-19T05:33:13.905Z,96.88
2022-10-19T05:34:13.884Z,96.52
2022-10-19T05:35:16.385Z,95.84
2022-10-19T05:36:13.861Z,96.47
2022-10-19T05:37:13.883Z,96.47
2022-10-19T05:38:13.846Z,96.36
2022-10-19T05:39:13.853Z,96.05
2022-10-19T05:40:13.819Z,95.95
2022-10-19T05:41:13.819Z,95.95
2022-10-19T05:42:13.833Z,96.26
2022-10-19T05:43:13.814Z,96.47
2022-10-19T05:44:13.777Z,96.88
2022-10-19T05:45:13.767Z,96.98
2022-10-19T05:46:13.765Z,97.29
2022-10-19T05:47:13.755Z,97.19
2022-10-19T05:48:13.775Z,97.19
2022-10-19T05:49:13.722Z,96.26
2022-10-19T05:50:13.723Z,96.47
2022-10-19T05:51:13.700Z,96.57
2022-10-19T05:52:13.714Z,96.15
2022-10-19T05:53:13.717Z,96.26
2022-10-19T05:54:13.692Z,96.88
2022-10-19T05:55:13.659Z,96.88
2022-10-19T05:56:13.681Z,96.98
2022-10-19T05:57:13.829Z,97.19
2022-10-19T05:58:13.643Z,97.03
2022-10-19T05:59:13.754Z,96.82
2022-10-19T06:00:13.624Z,97.29
2022-10-19T06:01:13.615Z,98.12
2022-10-19T06:02:13.658Z,98.43
2022-10-19T06:03:13.585Z,98.64
2022-10-19T06:04:13.601Z,98.85
2022-10-19T06:05:13.595Z,99.05
2022-10-19T06:06:13.565Z,99.57
2022-10-19T06:07:13.575Z,99.84
2022-10-19T06:08:13.534Z,99.94
2022-10-19T06:09:13.516Z,99.84
2022-10-19T06:10:13.534Z,99.63
2022-10-19T06:11:13.529Z,99.48
2022-10-19T06:12:15.760Z,99.84
2022-10-19T06:13:13.473Z,99.90
2022-10-19T06:14:13.483Z,99.17
2022-10-19T06:15:13.453Z,99.07
2022-10-19T06:16:13.451Z,98.55
2022-10-19T06:17:13.487Z,98.71
2022-10-19T06:18:13.446Z,98.92
2022-10-19T06:19:13.405Z,99.43
2022-10-19T06:20:13.404Z,99.33
2022-10-19T06:21:13.385Z,99.64
2022-10-19T06:22:13.402Z,99.49
2022-10-19T06:23:13.389Z,99.49
2022-10-19T06:24:13.369Z,98.77
2022-10-19T06:25:16.625Z,98.05
2022-10-19T06:26:13.364Z,98.56
2022-10-19T06:27:13.483Z,98.31
2022-10-19T06:28:13.326Z,98.93
2022-10-19T06:29:13.337Z,99.24
2022-10-19T06:30:13.436Z,99.65
2022-10-19T06:31:13.277Z,99.76
2022-10-19T06:32:13.285Z,99.55
2022-10-19T06:33:13.276Z,98.41
2022-10-19T06:34:13.378Z,97.79
2022-10-19T06:35:13.261Z,98.21
2022-10-19T06:36:13.249Z,98.52
2022-10-19T06:37:13.214Z,98.21
2022-10-19T06:38:13.228Z,97.89
2022-10-19T06:39:13.216Z,98.10
2022-10-19T06:40:13.238Z,98.21
2022-10-19T06:41:13.239Z,98.62
2022-10-19T06:42:13.174Z,99.04
2022-10-19T06:43:13.170Z,99.65
2022-10-19T06:44:13.152Z,99.71
2022-10-19T06:45:13.133Z,99.30
2022-10-19T06:46:13.135Z,98.88
2022-10-19T06:47:13.163Z,98.47
2022-10-19T06:48:13.114Z,98.88
2022-10-19T06:49:13.086Z,98.88
2022-10-19T06:50:13.093Z,99.09
2022-10-19T06:51:13.075Z,99.61
2022-10-19T06:52:13.074Z,99.71
2022-10-19T06:53:13.083Z,99.66
2022-10-19T06:54:13.151Z,99.40
2022-10-19T06:55:13.036Z,99.25
2022-10-19T06:56:13.044Z,98.74
2022-10-19T06:57:13.009Z,98.63
2022-10-19T06:58:13.010Z,98.94
2022-10-19T06:59:14.092Z,98.74
2022-10-19T07:00:12.997Z,98.94
2022-10-19T07:01:13.045Z,98.74
2022-10-19T07:02:12.968Z,98.74
2022-10-19T07:03:12.948Z,98.43
2022-10-19T07:04:12.956Z,99.15
2022-10-19T07:05:12.965Z,98.84
2022-10-19T07:06:12.942Z,98.11
2022-10-19T07:07:12.901Z,98.01
2022-10-19T07:08:12.963Z,98.84
2022-10-19T07:09:12.878Z,99.15
2022-10-19T07:10:12.882Z,99.25
2022-10-19T07:11:12.902Z,99.66
2022-10-19T07:12:12.856Z,98.79
2022-10-19T07:13:12.842Z,99.00
2022-10-19T07:14:12.856Z,99.31
2022-10-19T07:15:12.816Z,98.69
2022-10-19T07:16:16.146Z,98.90
2022-10-19T07:17:12.830Z,99.10
2022-10-19T07:18:12.831Z,99.72
2022-10-19T07:19:12.771Z,99.31
2022-10-19T07:20:12.777Z,99.93
2022-10-19T07:21:12.756Z,99.99
2022-10-19T07:22:18.637Z,99.78
2022-10-19T07:23:12.768Z,98.85
2022-10-19T07:24:12.732Z,99.57
2022-10-19T07:25:12.733Z,99.99
2022-10-19T07:26:12.718Z,99.99
2022-10-19T07:27:13.010Z,99.99
2022-10-19T07:28:12.690Z,99.99
2022-10-19T07:29:12.696Z,99.84
2022-10-19T07:30:12.684Z,99.48
2022-10-19T07:31:12.646Z,99.99
2022-10-19T07:32:12.650Z,99.99
2022-10-19T07:33:12.644Z,99.99
2022-10-19T07:34:12.628Z,99.99
2022-10-19T07:35:12.641Z,99.99
2022-10-19T07:36:12.610Z,99.99
2022-10-19T07:37:12.579Z,99.99
2022-10-19T07:38:12.587Z,99.70
2022-10-19T07:39:12.575Z,98.67
2022-10-19T07:40:12.564Z,99.70
2022-10-19T07:41:12.588Z,99.44
2022-10-19T07:42:12.643Z,99.65
2022-10-19T07:43:12.529Z,99.76
2022-10-19T07:44:15.549Z,99.99
2022-10-19T07:45:12.501Z,99.44
2022-10-19T07:46:12.512Z,99.09
2022-10-19T07:47:12.517Z,99.99
2022-10-19T07:48:12.479Z,99.99
2022-10-19T07:49:12.463Z,99.30
2022-10-19T07:50:12.457Z,99.46
2022-10-19T07:51:12.435Z,98.33
2022-10-19T07:52:12.439Z,98.84
2022-10-19T07:53:12.444Z,98.43
2022-10-19T07:54:12.414Z,98.74
2022-10-19T07:55:12.393Z,99.05
2022-10-19T07:56:12.417Z,99.05
2022-10-19T07:57:12.373Z,98.63
2022-10-19T07:58:12.387Z,98.84
2022-10-19T07:59:12.382Z,97.81
2022-10-19T08:00:12.351Z,98.33
2022-10-19T08:01:12.326Z,97.91
2022-10-19T08:02:12.392Z,98.22
2022-10-19T08:03:57.160Z,98.28
2022-10-19T08:04:59.445Z,98.79
2022-10-19T08:05:12.891Z,98.90
2022-10-19T08:06:12.294Z,99.31
2022-10-19T08:07:12.273Z,99.51
2022-10-19T08:08:12.267Z,99.16
2022-10-19T08:09:27.780Z,99.47
2022-10-19T08:10:12.279Z,99.26
2022-10-19T08:11:12.230Z,99.37
2022-10-19T08:12:15.080Z,99.16
2022-10-19T08:13:12.197Z,98.33
2022-10-19T08:14:12.204Z,98.44
2022-10-19T08:15:12.194Z,98.65
2022-10-19T08:16:12.205Z,98.54
2022-10-19T08:17:12.154Z,98.54
2022-10-19T08:18:12.170Z,97.92
2022-10-19T08:19:12.151Z,98.44
2022-10-19T08:20:12.142Z,98.75
2022-10-19T08:21:12.119Z,98.75
2022-10-19T08:22:12.148Z,98.65
2022-10-19T08:23:12.099Z,98.13
2022-10-19T08:24:12.098Z,98.44
2022-10-19T08:25:12.081Z,98.54
2022-10-19T08:26:12.075Z,98.96
2022-10-19T08:27:12.052Z,99.37
2022-10-19T08:28:12.083Z,99.01
2022-10-19T08:29:12.032Z,99.11
2022-10-19T08:30:12.034Z,99.32
2022-10-19T08:31:12.009Z,98.80
2022-10-19T08:32:12.014Z,99.11
2022-10-19T08:33:11.983Z,99.01
2022-10-19T08:34:12.014Z,99.11
2022-10-19T08:35:11.963Z,99.11
2022-10-19T08:36:11.970Z,99.42
2022-10-19T08:37:25.654Z,99.68
2022-10-19T08:38:11.953Z,99.58
2022-10-19T08:39:11.949Z,99.38
2022-10-19T08:40:11.939Z,99.38
2022-10-19T08:41:11.903Z,99.89
2022-10-19T08:42:11.906Z,99.33
2022-10-19T08:43:11.881Z,98.92
2022-10-19T08:44:11.879Z,99.22
2022-10-19T08:45:11.881Z,98.51
2022-10-19T08:46:11.861Z,98.30
2022-10-19T08:47:12.537Z,98.20
2022-10-19T08:48:11.979Z,98.67
2022-10-19T08:49:11.843Z,99.08
2022-10-19T08:50:11.840Z,98.46
2022-10-19T08:51:11.820Z,97.95
2022-10-19T08:52:11.794Z,98.46
2022-10-19T08:53:11.792Z,98.11
2022-10-19T08:54:11.774Z,97.80
2022-10-19T08:55:15.039Z,97.70
2022-10-19T08:56:15.027Z,97.14
2022-10-19T08:57:11.740Z,97.34
2022-10-19T08:58:11.751Z,97.24
2022-10-19T08:59:11.706Z,95.87
2022-10-19T09:00:11.717Z,96.17
2022-10-19T09:01:11.742Z,95.46
2022-10-19T09:02:11.688Z,94.95
2022-10-19T09:03:11.694Z,93.92
2022-10-19T09:04:11.672Z,95.25
2022-10-19T09:05:11.689Z,95.15
2022-10-19T09:06:11.649Z,95.66
2022-10-19T09:07:11.669Z,94.02
2022-10-19T09:08:16.696Z,93.82
2022-10-19T09:09:11.606Z,95.36
2022-10-19T09:10:11.599Z,94.84
2022-10-19T09:11:11.580Z,95.05
2022-10-19T09:12:11.636Z,95.36
2022-10-19T09:13:11.563Z,94.39
2022-10-19T09:14:11.561Z,94.70
2022-10-19T09:15:11.553Z,94.39
2022-10-19T09:16:11.539Z,93.84
2022-10-19T09:17:11.512Z,93.32
2022-10-19T09:18:11.542Z,92.05
2022-10-19T09:19:11.544Z,92.36
2022-10-19T09:20:11.540Z,91.44
2022-10-19T09:21:11.482Z,90.21
2022-10-19T09:22:11.473Z,90.58
2022-10-19T09:23:13.483Z,90.17
2022-10-19T09:24:11.453Z,88.94
2022-10-19T09:25:11.466Z,90.37
2022-10-19T09:26:11.431Z,90.27
2022-10-19T09:27:11.426Z,89.61
2022-10-19T09:28:11.410Z,90.23
2022-10-19T09:29:11.418Z,89.00
2022-10-19T09:30:11.395Z,89.25
2022-10-19T09:31:11.370Z,87.82
2022-10-19T09:32:11.369Z,88.74
2022-10-19T09:33:15.253Z,90.64
2022-10-19T09:34:11.367Z,89.82
2022-10-19T09:35:11.326Z,88.90
2022-10-19T09:36:22.301Z,90.02
2022-10-19T09:37:15.989Z,90.02
2022-10-19T09:38:11.309Z,88.18
2022-10-19T09:39:11.281Z,88.08
2022-10-19T09:40:11.306Z,87.53
2022-10-19T09:41:11.258Z,89.26
2022-10-19T09:42:11.288Z,87.73
2022-10-19T09:43:11.238Z,86.82
2022-10-19T09:44:11.237Z,87.63
2022-10-19T09:45:11.259Z,88.55
2022-10-19T09:46:19.477Z,87.53
2022-10-19T09:47:13.672Z,87.70
2022-10-19T09:48:13.140Z,86.47
2022-10-19T09:49:11.192Z,87.18
2022-10-19T09:50:11.179Z,87.79
2022-10-19T09:51:11.175Z,87.59
2022-10-19T09:52:11.177Z,86.06
2022-10-19T09:53:11.132Z,85.14
2022-10-19T09:54:11.132Z,86.43
2022-10-19T09:55:11.107Z,84.90
2022-10-19T09:56:11.109Z,84.90
2022-10-19T09:57:11.163Z,85.06
2022-10-19T09:58:11.107Z,85.57
2022-10-19T09:59:11.063Z,86.65
2022-10-19T10:00:11.081Z,86.00
2022-10-19T10:01:11.061Z,83.25
2022-10-19T10:02:11.038Z,83.21
2022-10-19T10:03:11.183Z,82.80
2022-10-19T10:04:11.024Z,82.50
2022-10-19T10:05:11.011Z,82.40
2022-10-19T10:06:10.988Z,81.38
2022-10-19T10:07:11.023Z,79.14
2022-10-19T10:08:10.981Z,78.93
2022-10-19T10:09:11.241Z,79.48
2022-10-19T10:10:10.954Z,80.70
2022-10-19T10:11:10.944Z,81.27
2022-10-19T10:12:10.920Z,81.07
2022-10-19T10:13:10.956Z,81.31
2022-10-19T10:14:10.904Z,80.50
2022-10-19T10:15:11.025Z,81.27
2022-10-19T10:16:10.879Z,81.79
2022-10-19T10:17:10.893Z,81.07
2022-10-19T10:18:10.877Z,81.38
2022-10-19T10:19:10.862Z,78.63
2022-10-19T10:20:10.838Z,76.39
2022-10-19T10:21:10.880Z,79.07
2022-10-19T10:22:10.813Z,77.85
2022-10-19T10:23:10.823Z,79.27
2022-10-19T10:24:10.790Z,78.36
2022-10-19T10:25:10.847Z,78.77
2022-10-19T10:26:10.769Z,76.49
2022-10-19T10:27:10.835Z,74.45
2022-10-19T10:28:10.753Z,77.91
2022-10-19T10:29:10.786Z,77.00
2022-10-19T10:30:10.728Z,75.47
2022-10-19T10:31:10.748Z,76.49
2022-10-19T10:32:10.739Z,75.06
2022-10-19T10:33:26.404Z,75.78
2022-10-19T10:34:22.666Z,75.88
2022-10-19T10:35:10.731Z,73.50
2022-10-19T10:36:10.668Z,74.52
2022-10-19T10:37:10.673Z,74.79
2022-10-19T10:38:10.650Z,73.77
2022-10-19T10:39:10.683Z,72.31
2022-10-19T10:40:10.623Z,73.23
2022-10-19T10:41:10.623Z,73.63
2022-10-19T10:42:10.609Z,72.08
2022-10-19T10:43:10.600Z,70.75
2022-10-19T10:44:10.799Z,72.17
2022-10-19T10:45:10.603Z,72.28
2022-10-19T10:46:10.563Z,69.84
2022-10-19T10:47:10.559Z,69.91
2022-10-19T10:48:10.536Z,71.12
2022-10-19T10:49:10.542Z,68.99
2022-10-19T10:50:10.511Z,69.91
2022-10-19T10:51:10.543Z,70.14
2022-10-19T10:52:10.502Z,68.99
2022-10-19T10:53:10.493Z,69.40
2022-10-19T10:54:10.473Z,70.21
2022-10-19T10:55:10.506Z,70.01
2022-10-19T10:56:10.445Z,69.26
2022-10-19T10:57:10.514Z,70.18
2022-10-19T10:58:10.428Z,70.45
2022-10-19T10:59:10.575Z,69.23
2022-10-19T11:00:10.420Z,69.54
2022-10-19T11:01:10.409Z,67.98
2022-10-19T11:02:10.525Z,69.71
2022-10-19T11:03:10.413Z,69.88
2022-10-19T11:04:10.365Z,68.70
2022-10-19T11:05:10.376Z,68.70
2022-10-19T11:06:10.351Z,68.49
2022-10-19T11:07:10.341Z,67.88
2022-10-19T11:08:10.325Z,68.08
2022-10-19T11:09:10.408Z,68.29
2022-10-19T11:10:10.295Z,68.49
2022-10-19T11:11:10.301Z,68.39
2022-10-19T11:12:10.279Z,69.81
2022-10-19T11:13:10.284Z,69.68
2022-10-19T11:14:10.256Z,69.64
2022-10-19T11:15:10.289Z,67.34
2022-10-19T11:16:10.238Z,67.34
2022-10-19T11:17:10.234Z,67.03
2022-10-19T11:18:10.212Z,68.56
2022-10-19T11:19:10.270Z,68.29
2022-10-19T11:20:10.189Z,68.70
2022-10-19T11:21:10.234Z,67.34
2022-10-19T11:22:10.166Z,67.55
2022-10-19T11:23:10.175Z,67.00
2022-10-19T11:24:10.148Z,68.12
2022-10-19T11:25:10.147Z,66.86
2022-10-19T11:26:10.129Z,67.27
2022-10-19T11:27:10.154Z,67.41
2022-10-19T11:28:10.100Z,69.30
2022-10-19T11:29:10.107Z,70.32
2022-10-19T11:30:10.080Z,68.05
2022-10-19T11:31:10.092Z,67.41
2022-10-19T11:32:10.060Z,68.19
2022-10-19T11:33:10.082Z,65.76
2022-10-19T11:34:10.041Z,66.88
2022-10-19T11:35:10.040Z,66.06
2022-10-19T11:36:10.016Z,65.56
2022-10-19T11:37:10.031Z,66.09
2022-10-19T11:38:29.527Z,66.40
2022-10-19T11:39:10.036Z,67.08
2022-10-19T11:40:09.973Z,65.45
2022-10-19T11:41:17.843Z,65.28
2022-10-19T11:42:09.955Z,64.17
2022-10-19T11:43:09.951Z,65.18
2022-10-19T11:44:09.936Z,65.79
2022-10-19T11:45:09.952Z,66.94
2022-10-19T11:46:09.906Z,67.03
2022-10-19T11:47:09.921Z,65.48
2022-10-19T11:48:09.883Z,65.52
2022-10-19T11:49:09.891Z,67.14
2022-10-19T11:51:20.775Z,67.03
2022-10-19T11:52:09.853Z,66.16
2022-10-19T11:53:09.850Z,66.05
2022-10-19T11:54:14.435Z,66.36
2022-10-19T11:55:09.820Z,67.58
2022-10-19T11:56:09.850Z,68.59
2022-10-19T11:57:11.624Z,67.34
2022-10-19T11:58:09.776Z,67.72
2022-10-19T11:59:09.852Z,67.82
2022-10-19T12:00:15.470Z,67.38
2022-10-19T12:01:09.800Z,65.76
2022-10-19T12:02:09.771Z,65.66
2022-10-19T12:03:09.773Z,64.54
2022-10-19T12:04:09.709Z,65.76
2022-10-19T12:05:09.719Z,65.89
2022-10-19T12:06:09.697Z,65.99
2022-10-19T12:07:09.698Z,66.30
2022-10-19T12:08:09.756Z,66.57
2022-10-19T12:09:09.791Z,66.06
2022-10-19T12:10:09.645Z,65.18
2022-10-19T12:11:09.699Z,66.19
2022-10-19T12:12:09.636Z,66.70
2022-10-19T12:13:09.645Z,65.56
2022-10-19T12:14:09.651Z,64.34
2022-10-19T12:15:09.629Z,65.36
2022-10-19T12:16:09.580Z,67.28
2022-10-19T12:17:09.658Z,66.33
2022-10-19T12:18:09.571Z,64.61
2022-10-19T12:19:09.566Z,66.03
2022-10-19T12:20:09.540Z,66.33
2022-10-19T12:21:09.675Z,66.74
2022-10-19T12:22:09.521Z,65.93
2022-10-19T12:23:09.525Z,63.17
2022-10-19T12:24:09.495Z,63.37
2022-10-19T12:25:09.505Z,64.28
2022-10-19T12:26:09.529Z,63.67
2022-10-19T12:27:09.610Z,63.67
2022-10-19T12:28:09.455Z,63.70
2022-10-19T12:29:09.468Z,64.61
2022-10-19T12:30:09.497Z,65.83
2022-10-19T12:31:09.434Z,67.76
2022-10-19T12:32:09.423Z,64.54
2022-10-19T12:33:09.472Z,65.28
2022-10-19T12:34:09.389Z,66.09
2022-10-19T12:35:09.485Z,65.59
2022-10-19T12:36:09.372Z,65.89
2022-10-19T12:37:09.395Z,66.91
2022-10-19T12:38:09.350Z,65.48
2022-10-19T12:39:09.382Z,65.25
2022-10-19T12:40:09.378Z,65.15
2022-10-19T12:41:09.326Z,67.38
2022-10-19T12:42:09.299Z,64.95
2022-10-19T12:43:09.342Z,65.25
2022-10-19T12:44:09.279Z,64.82
2022-10-19T12:45:09.304Z,64.01
2022-10-19T12:46:09.265Z,64.21
2022-10-19T12:47:09.264Z,64.72
2022-10-19T12:48:09.242Z,65.62
2022-10-19T12:49:09.245Z,63.90
2022-10-19T12:50:09.384Z,65.53
2022-10-19T12:51:09.255Z,64.75
2022-10-19T12:52:09.205Z,64.04
2022-10-19T12:53:09.194Z,63.83